createdAt,value
2022-10-29T00:00:55.575Z,6.57
2022-10-29T00:04:40.797Z,7.35
2022-10-29T00:08:12.688Z,6.72
2022-10-29T00:11:44.441Z,6.63
2022-10-29T00:15:16.595Z,6.73
2022-10-29T00:18:48.538Z,7.30
2022-10-29T00:22:20.649Z,7.03
2022-10-29T00:25:56.719Z,6.40
2022-10-29T00:29:28.601Z,5.73
2022-10-29T00:33:00.375Z,5.88
2022-10-29T00:36:32.337Z,6.03
2022-10-29T00:40:04.615Z,5.73
2022-10-29T00:43:38.282Z,5.33
2022-10-29T00:47:23.859Z,5.45
2022-10-29T00:50:57.468Z,6.05
2022-10-29T00:54:32.505Z,5.87
2022-10-29T00:58:04.683Z,5.57
2022-10-29T01:01:37.642Z,5.13
2022-10-29T01:05:10.926Z,4.32
2022-10-29T01:08:42.561Z,5.32
2022-10-29T01:12:49.909Z,5.23
2022-10-29T01:16:27.351Z,5.40
2022-10-29T01:20:17.939Z,5.85
2022-10-29T01:24:03.627Z,5.20
2022-10-29T01:27:47.370Z,5.27
2022-10-29T01:31:43.498Z,4.75
2022-10-29T01:35:27.844Z,4.95
2022-10-29T01:39:12.184Z,5.00
2022-10-29T01:42:53.936Z,4.87
2022-10-29T01:46:40.745Z,5.15
2022-10-29T01:50:18.566Z,4.07
2022-10-29T01:53:51.593Z,4.70
2022-10-29T01:57:29.533Z,4.10
2022-10-29T02:01:04.407Z,4.40
2022-10-29T02:05:02.212Z,4.07
2022-10-29T02:08:47.990Z,5.30
2022-10-29T02:12:29.517Z,4.27
2022-10-29T02:16:04.323Z,4.05
2022-10-29T02:19:36.603Z,4.55
2022-10-29T02:23:08.519Z,4.67
2022-10-29T02:26:40.379Z,4.27
2022-10-29T02:30:12.159Z,4.50
2022-10-29T02:33:44.059Z,4.00
2022-10-29T02:37:15.847Z,4.33
2022-10-29T02:40:47.751Z,4.00
2022-10-29T02:44:19.396Z,4.70
2022-10-29T02:47:51.227Z,5.50
2022-10-29T02:51:23.086Z,5.23
2022-10-29T02:54:54.973Z,4.70
2022-10-29T02:58:26.747Z,4.43
2022-10-29T03:01:58.736Z,4.40
2022-10-29T03:05:31.036Z,4.40
2022-10-29T03:09:04.045Z,4.80
2022-10-29T03:12:35.755Z,4.57
2022-10-29T03:16:07.979Z,4.50
2022-10-29T03:19:39.976Z,4.50
2022-10-29T03:23:11.984Z,4.97
2022-10-29T03:26:43.715Z,5.07
2022-10-29T03:30:17.217Z,4.38
2022-10-29T03:33:48.868Z,5.03
2022-10-29T03:37:20.842Z,4.40
2022-10-29T03:40:52.622Z,5.25
2022-10-29T03:44:24.479Z,4.68
2022-10-29T03:47:57.626Z,4.40
2022-10-29T03:51:29.893Z,4.63
2022-10-29T03:55:01.685Z,4.68
2022-10-29T03:58:33.632Z,4.47
2022-10-29T04:02:05.832Z,4.47
2022-10-29T04:05:38.727Z,4.50
2022-10-29T04:09:13.747Z,4.93
2022-10-29T04:12:46.722Z,4.65
2022-10-29T04:16:18.583Z,4.30
2022-10-29T04:19:50.568Z,4.03
2022-10-29T04:31:08.142Z,3.80
2022-10-29T04:34:40.364Z,4.77
2022-10-29T04:38:12.689Z,4.03
2022-10-29T04:41:47.729Z,4.85
2022-10-29T04:45:19.450Z,5.13
2022-10-29T04:48:51.583Z,3.97
2022-10-29T04:52:23.355Z,4.70
2022-10-29T04:56:03.499Z,7.30
2022-10-29T04:59:35.168Z,4.50
2022-10-29T05:03:07.337Z,4.77
2022-10-29T05:06:39.345Z,4.28
2022-10-29T05:10:11.728Z,4.60
2022-10-29T05:13:45.660Z,4.50
2022-10-29T05:17:17.555Z,4.60
2022-10-29T05:20:53.071Z,4.32
2022-10-29T05:24:25.362Z,4.15
2022-10-29T05:28:13.914Z,4.23
2022-10-29T05:31:45.914Z,3.90
2022-10-29T05:35:17.601Z,4.68
2022-10-29T05:38:49.498Z,4.93
2022-10-29T05:42:21.193Z,4.63
2022-10-29T05:45:53.053Z,5.00
2022-10-29T05:49:24.744Z,4.90
2022-10-29T05:53:04.828Z,4.72
2022-10-29T05:56:36.491Z,4.00
2022-10-29T06:00:09.225Z,5.90
2022-10-29T06:03:41.011Z,5.00
2022-10-29T06:07:13.034Z,4.78
2022-10-29T06:10:44.819Z,4.93
2022-10-29T06:14:16.807Z,4.70
2022-10-29T06:17:49.076Z,5.32
2022-10-29T06:21:20.961Z,5.00
2022-10-29T06:24:52.657Z,5.07
2022-10-29T06:28:24.551Z,5.03
2022-10-29T06:31:56.289Z,5.07
2022-10-29T06:35:29.188Z,5.53
2022-10-29T06:39:01.061Z,5.03
2022-10-29T06:42:32.928Z,5.38
2022-10-29T06:46:04.738Z,5.32
2022-10-29T06:49:36.577Z,5.27
2022-10-29T06:53:12.196Z,5.77
2022-10-29T06:56:44.093Z,5.63
2022-10-29T07:00:16.398Z,5.53
2022-10-29T07:03:48.979Z,5.67
2022-10-29T07:07:20.652Z,5.33
2022-10-29T07:10:53.731Z,5.40
2022-10-29T07:14:25.428Z,5.50
2022-10-29T07:18:05.377Z,5.70
2022-10-29T07:21:37.307Z,5.60
2022-10-29T07:25:09.345Z,5.68
2022-10-29T07:28:41.007Z,6.13
2022-10-29T07:32:12.967Z,5.73
2022-10-29T07:35:45.120Z,5.53
2022-10-29T07:39:17.396Z,5.07
2022-10-29T07:42:52.736Z,5.20
2022-10-29T07:46:24.646Z,5.63
2022-10-29T07:49:56.282Z,5.77
2022-10-29T07:53:31.245Z,6.15
2022-10-29T07:57:02.991Z,6.18
2022-10-29T08:00:37.153Z,5.97
2022-10-29T08:04:08.847Z,5.77
2022-10-29T08:07:40.759Z,5.75
2022-10-29T08:11:12.535Z,5.00
2022-10-29T08:14:44.520Z,5.27
2022-10-29T08:18:18.259Z,5.63
2022-10-29T08:21:50.140Z,6.95
2022-10-29T08:25:22.230Z,5.13
2022-10-29T08:28:54.109Z,5.53
2022-10-29T08:32:25.916Z,5.73
2022-10-29T08:35:57.831Z,5.15
2022-10-29T08:39:29.508Z,5.22
2022-10-29T08:43:16.085Z,5.73
2022-10-29T08:46:54.199Z,5.33
2022-10-29T08:50:33.143Z,5.95
2022-10-29T08:54:29.666Z,5.03
2022-10-29T08:57:59.699Z,6.37
2022-10-29T09:01:31.872Z,5.47
2022-10-29T09:05:04.083Z,5.43
2022-10-29T09:09:00.912Z,5.68
2022-10-29T09:12:51.472Z,5.97
2022-10-29T09:16:45.797Z,5.93
2022-10-29T09:20:40.554Z,4.43
2022-10-29T09:24:25.770Z,5.85
2022-10-29T09:28:06.656Z,5.90
2022-10-29T09:31:47.445Z,4.83
2022-10-29T09:35:20.082Z,5.05
2022-10-29T09:38:58.351Z,5.20
2022-10-29T09:42:38.264Z,4.65
2022-10-29T09:46:20.821Z,4.83
2022-10-29T09:50:16.912Z,3.95
2022-10-29T09:53:50.871Z,3.80
2022-10-29T09:57:26.588Z,4.28
2022-10-29T10:00:58.295Z,3.33
2022-10-29T10:04:36.154Z,3.40
2022-10-29T10:08:13.470Z,4.10
2022-10-29T10:11:52.957Z,3.78
2022-10-29T10:15:47.535Z,3.20
2022-10-29T10:19:26.226Z,2.80
2022-10-29T10:22:58.425Z,3.00
2022-10-29T10:26:32.272Z,2.92
2022-10-29T10:30:04.020Z,2.23
2022-10-29T10:33:43.785Z,3.20
2022-10-29T10:37:20.173Z,3.10
2022-10-29T10:41:07.684Z,3.05
2022-10-29T10:44:47.242Z,3.53
2022-10-29T10:48:19.386Z,3.23
2022-10-29T10:51:54.608Z,2.22
2022-10-29T10:55:31.231Z,1.65
2022-10-29T10:59:11.193Z,1.30
2022-10-29T11:02:51.259Z,1.17
2022-10-29T11:06:29.779Z,1.35
2022-10-29T11:10:06.215Z,1.58
2022-10-29T11:13:41.303Z,1.48
2022-10-29T11:17:29.114Z,1.13
2022-10-29T11:21:19.574Z,1.40
2022-10-29T11:24:59.335Z,1.48
2022-10-29T11:28:40.716Z,2.45
2022-10-29T11:32:22.600Z,1.37
2022-10-29T11:36:19.901Z,1.30
2022-10-29T11:40:02.585Z,2.58
2022-10-29T11:43:34.793Z,1.05
2022-10-29T11:47:12.718Z,1.30
2022-10-29T11:51:03.248Z,1.33
2022-10-29T11:54:47.106Z,1.52
2022-10-29T11:58:38.073Z,1.70
2022-10-29T12:02:44.682Z,1.80
2022-10-29T12:06:31.725Z,1.20
2022-10-29T12:10:32.838Z,1.70
2022-10-29T12:14:26.342Z,1.70
2022-10-29T12:18:23.639Z,1.50
2022-10-29T12:22:06.291Z,1.83
2022-10-29T12:25:59.557Z,2.30
2022-10-29T12:29:47.896Z,1.80
2022-10-29T12:33:53.704Z,2.28
2022-10-29T12:37:40.822Z,1.63
2022-10-29T12:41:34.560Z,2.67
2022-10-29T12:45:09.750Z,2.10
2022-10-29T12:48:59.234Z,2.10
2022-10-29T12:52:34.029Z,2.20
2022-10-29T12:56:07.665Z,2.30
2022-10-29T12:59:40.579Z,2.70
2022-10-29T13:03:12.501Z,3.33
2022-10-29T13:06:46.185Z,2.77
2022-10-29T13:10:25.155Z,2.80
2022-10-29T13:14:00.328Z,2.58
2022-10-29T13:17:35.496Z,2.80
2022-10-29T13:21:07.423Z,3.05
2022-10-29T13:24:39.388Z,2.17
2022-10-29T13:28:11.050Z,2.22
2022-10-29T13:31:46.243Z,2.35
2022-10-29T13:35:17.864Z,2.63
2022-10-29T13:39:04.635Z,2.37
2022-10-29T13:42:38.389Z,2.30
2022-10-29T13:46:25.945Z,2.22
2022-10-29T13:49:58.672Z,1.95
2022-10-29T13:53:41.206Z,2.33
2022-10-29T13:57:13.174Z,2.27
2022-10-29T14:00:46.378Z,2.60
2022-10-29T14:04:26.857Z,2.65
2022-10-29T14:08:18.621Z,2.80
2022-10-29T14:11:58.021Z,2.17
2022-10-29T14:15:30.114Z,2.47
2022-10-29T14:19:19.171Z,2.30
2022-10-29T14:22:51.452Z,2.38
2022-10-29T14:26:24.732Z,2.67
2022-10-29T14:30:19.823Z,2.45
2022-10-29T14:33:59.765Z,2.72
2022-10-29T14:37:42.203Z,3.72
2022-10-29T14:41:15.181Z,3.30
2022-10-29T14:44:53.835Z,2.63
2022-10-29T14:48:25.986Z,3.67
2022-10-29T14:52:06.666Z,2.88
2022-10-29T14:55:42.468Z,3.40
2022-10-29T14:59:24.980Z,3.15
2022-10-29T15:03:00.683Z,2.60
2022-10-29T15:06:32.826Z,3.03
2022-10-29T15:10:19.061Z,3.00
2022-10-29T15:13:50.740Z,3.03
2022-10-29T15:17:26.824Z,2.30
2022-10-29T15:20:58.842Z,2.38
2022-10-29T15:24:30.837Z,3.00
2022-10-29T15:28:03.436Z,3.08
2022-10-29T15:31:49.737Z,2.83
2022-10-29T15:35:21.846Z,2.83
2022-10-29T15:39:29.167Z,2.85
2022-10-29T15:43:29.094Z,5.30
2022-10-29T15:47:16.227Z,3.77
2022-10-29T15:50:47.959Z,4.60
2022-10-29T15:54:19.939Z,4.60
2022-10-29T15:57:52.165Z,4.35
2022-10-29T16:01:24.494Z,4.53
2022-10-29T16:04:56.246Z,4.55
2022-10-29T16:08:33.822Z,4.68
2022-10-29T16:12:05.673Z,5.63
2022-10-29T16:15:40.190Z,4.80
2022-10-29T16:19:14.952Z,5.28
2022-10-29T16:22:48.087Z,5.22
2022-10-29T16:26:22.812Z,5.55
2022-10-29T16:29:54.719Z,5.70
2022-10-29T16:33:26.750Z,5.28
2022-10-29T16:36:58.647Z,5.20
2022-10-29T16:40:30.322Z,5.53
2022-10-29T16:44:02.243Z,5.30
2022-10-29T16:47:34.041Z,5.05
2022-10-29T16:51:06.754Z,5.25
2022-10-29T16:54:38.392Z,5.73
2022-10-29T16:58:14.654Z,11.77
2022-10-29T17:01:47.739Z,10.82
2022-10-29T17:05:20.247Z,8.57
2022-10-29T17:08:51.892Z,6.70
2022-10-29T17:12:25.809Z,6.30
2022-10-29T17:15:57.967Z,6.80
2022-10-29T17:19:32.864Z,7.50
2022-10-29T17:23:04.519Z,7.50
2022-10-29T17:26:36.425Z,8.47
2022-10-29T17:30:09.464Z,8.05
2022-10-29T17:33:41.388Z,7.85
2022-10-29T17:37:13.249Z,9.00
2022-10-29T17:40:46.216Z,8.97
2022-10-29T17:44:18.626Z,11.00
2022-10-29T17:47:58.357Z,11.27
2022-10-29T17:51:30.403Z,13.33
2022-10-29T17:55:02.360Z,13.37
2022-10-29T17:58:34.169Z,12.85
2022-10-29T18:02:06.118Z,12.30
2022-10-29T18:05:38.386Z,12.33
2022-10-29T18:09:10.773Z,12.87
2022-10-29T18:12:42.505Z,11.52
2022-10-29T18:16:18.565Z,10.43
2022-10-29T18:19:50.245Z,10.35
2022-10-29T18:23:24.608Z,9.90
2022-10-29T18:26:56.583Z,9.15
2022-10-29T18:30:28.503Z,9.65
2022-10-29T18:34:04.760Z,10.20
2022-10-29T18:37:36.732Z,10.50
2022-10-29T18:41:09.125Z,10.48
2022-10-29T18:44:41.014Z,10.73
2022-10-29T18:48:12.822Z,10.60
2022-10-29T18:51:45.062Z,10.57
2022-10-29T18:55:16.861Z,11.50
2022-10-29T18:58:49.081Z,12.35
2022-10-29T19:02:20.826Z,11.17
2022-10-29T19:05:52.877Z,14.97
2022-10-29T19:09:24.575Z,15.85
2022-10-29T19:12:56.884Z,22.27
2022-10-29T19:16:30.603Z,20.97
2022-10-29T19:20:02.523Z,19.70
2022-10-29T19:23:34.832Z,16.13
2022-10-29T19:27:06.699Z,14.20
2022-10-29T19:30:38.358Z,13.53
2022-10-29T19:34:10.284Z,13.60
2022-10-29T19:37:42.046Z,12.15
2022-10-29T19:41:15.415Z,11.20
2022-10-29T19:44:50.790Z,13.20
2022-10-29T19:48:26.138Z,12.23
2022-10-29T19:51:57.922Z,12.88
2022-10-29T19:55:29.998Z,12.85
2022-10-29T19:59:03.621Z,12.90
2022-10-29T20:02:35.527Z,14.47
2022-10-29T20:06:09.206Z,13.32
2022-10-29T20:09:41.152Z,14.77
2022-10-29T20:13:12.813Z,12.73
2022-10-29T20:16:45.135Z,12.60
2022-10-29T20:20:17.431Z,12.70
2022-10-29T20:23:49.403Z,12.77
2022-10-29T20:27:21.050Z,13.43
2022-10-29T20:31:18.547Z,11.47
2022-10-29T20:34:51.157Z,14.23
2022-10-29T20:38:23.002Z,14.93
2022-10-29T20:41:54.695Z,15.80
2022-10-29T20:45:26.632Z,15.53
2022-10-29T20:48:58.548Z,14.65
2022-10-29T20:52:30.484Z,14.48
2022-10-29T20:56:02.235Z,12.33
2022-10-29T20:59:34.184Z,12.23
2022-10-29T21:03:05.892Z,13.02
2022-10-29T21:06:37.763Z,14.10
2022-10-29T21:10:09.873Z,13.70
2022-10-29T21:13:42.040Z,12.73
2022-10-29T21:17:15.990Z,13.95
2022-10-29T21:20:48.420Z,13.35
2022-10-29T21:24:20.301Z,14.40
2022-10-29T21:27:54.392Z,15.77
2022-10-29T21:31:26.589Z,15.98
2022-10-29T21:34:58.512Z,16.95
2022-10-29T21:38:31.027Z,17.87
2022-10-29T21:42:03.186Z,18.27
2022-10-29T21:45:34.823Z,19.13
2022-10-29T21:49:06.692Z,17.17
2022-10-29T21:52:38.449Z,19.90
2022-10-29T21:56:12.967Z,18.97
2022-10-29T21:59:44.609Z,19.67
2022-10-29T22:03:16.543Z,22.17
2022-10-29T22:06:48.195Z,22.07
2022-10-29T22:10:20.090Z,20.97
2022-10-29T22:13:52.537Z,21.40
2022-10-29T22:17:27.067Z,21.70
2022-10-29T22:21:10.206Z,22.87
2022-10-29T22:24:42.348Z,23.73
2022-10-29T22:28:14.225Z,25.27
2022-10-29T22:31:46.119Z,27.17
2022-10-29T22:35:17.758Z,26.07
2022-10-29T22:38:54.312Z,25.90
2022-10-29T22:42:26.206Z,26.75
2022-10-29T22:45:58.073Z,25.27
2022-10-29T22:49:29.690Z,26.53
2022-10-29T22:53:01.593Z,25.90
2022-10-29T22:56:35.385Z,25.48
2022-10-29T23:00:07.717Z,25.75
2022-10-29T23:03:41.977Z,25.00
2022-10-29T23:07:13.869Z,25.60
2022-10-29T23:10:45.505Z,25.75
2022-10-29T23:14:17.386Z,24.73
2022-10-29T23:17:53.219Z,25.87
2022-10-29T23:21:25.396Z,28.00
2022-10-29T23:24:57.019Z,28.77
2022-10-29T23:28:40.165Z,28.95
2022-10-29T23:32:11.786Z,28.70
2022-10-29T23:35:43.656Z,30.57
2022-10-29T23:39:15.458Z,30.95
2022-10-29T23:42:47.293Z,30.70
2022-10-29T23:46:19.465Z,31.50
2022-10-29T23:49:51.365Z,32.93
2022-10-29T23:53:23.954Z,30.40
2022-10-29T23:56:55.839Z,29.85
